SEGU/GYE METAR and TAF weather

Enter ICAO airport designator
Station Type Date Time Source
SEGU METAR 2022/12/10 01:00 UTC NOAA

SEGU 100100Z 22012KT 9999 SCT030 SCT100 27/18 Q1009 NOSIG RMK A2981


Station Type Date Time Source
SEGU Decoded METAR 2022/12/10 01:00 UTC NOAA

Guayaquil / Simon Bolivar, Ecuador (SEGU) 02-09S 079-53W 9M
Dec 09, 2022 - 08:00 PM EST / 2022.12.10 0100 UTC
Wind: from the SW (220 degrees) at 14 MPH (12 KT):0
Visibility: greater than 7 mile(s):0
Sky conditions: partly cloudy
Temperature: 80 F (27 C)
Dew Point: 64 F (18 C)
Relative Humidity: 57%
Pressure (altimeter): 29.80 in. Hg (1009 hPa)
ob: SEGU 100100Z 22012KT 9999 SCT030 SCT100 27/18 Q1009 NOSIG RMK A2981
cycle: 1

Station Type Date Time Source
SEGU TAF 2022/12/09 18:16 UTC NOAA

TAF SEGU 091700Z 0918/1018 14006KT 9999 FEW026
BECMG 1000/1002 22012KT SCT026 SCT100
BECMG 1004/1006 BKN026 BKN100
BECMG 1012/1014 22006KT SCT026 SCT100 TX31/0919Z TN21/1010Z

Example: see airport list